sensor_id;sensor_type;location;lat;lon;timestamp;temperature;humidity
73586;DHT22;61865;50.232;18.614;2023-02-28T00:02:17;-0.20;99.90
73586;DHT22;61865;50.232;18.614;2023-02-28T00:04:40;-0.20;99.90
73586;DHT22;61865;50.232;18.614;2023-02-28T00:07:02;-0.20;99.90
73586;DHT22;61865;50.232;18.614;2023-02-28T00:09:24;-0.20;99.90
73586;DHT22;61865;50.232;18.614;2023-02-28T00:11:46;-0.30;99.90
73586;DHT22;61865;50.232;18.614;2023-02-28T00:14:08;-0.30;99.90
73586;DHT22;61865;50.232;18.614;2023-02-28T00:16:30;-0.30;99.90
73586;DHT22;61865;50.232;18.614;2023-02-28T00:18:52;-0.40;99.90
73586;DHT22;61865;50.232;18.614;2023-02-28T00:21:16;-0.40;99.90
73586;DHT22;61865;50.232;18.614;2023-02-28T00:23:38;-0.40;99.90
73586;DHT22;61865;50.232;18.614;2023-02-28T00:26:00;-0.50;99.90
73586;DHT22;61865;50.232;18.614;2023-02-28T00:28:23;-0.60;99.90
73586;DHT22;61865;50.232;18.614;2023-02-28T00:30:45;-0.60;99.90
73586;DHT22;61865;50.232;18.614;2023-02-28T00:33:07;-0.70;99.90
73586;DHT22;61865;50.232;18.614;2023-02-28T00:35:29;-0.80;99.90
73586;DHT22;61865;50.232;18.614;2023-02-28T00:37:53;-0.80;99.90
73586;DHT22;61865;50.232;18.614;2023-02-28T00:40:15;-0.90;99.90
73586;DHT22;61865;50.232;18.614;2023-02-28T00:42:38;-1.00;99.90
73586;DHT22;61865;50.232;18.614;2023-02-28T00:45:00;-1.00;99.90
73586;DHT22;61865;50.232;18.614;2023-02-28T00:47:25;-1.00;99.90
73586;DHT22;61865;50.232;18.614;2023-02-28T00:49:47;-1.00;99.90
73586;DHT22;61865;50.232;18.614;2023-02-28T00:52:09;-1.00;99.90
73586;DHT22;61865;50.232;18.614;2023-02-28T00:54:35;-1.00;99.90
73586;DHT22;61865;50.232;18.614;2023-02-28T00:56:58;-1.00;99.90
73586;DHT22;61865;50.232;18.614;2023-02-28T00:59:20;-1.00;99.90
73586;DHT22;61865;50.232;18.614;2023-02-28T01:01:42;-1.10;99.90
73586;DHT22;61865;50.232;18.614;2023-02-28T01:04:05;-1.10;99.90
73586;DHT22;61865;50.232;18.614;2023-02-28T01:06:27;-1.10;99.90
73586;DHT22;61865;50.232;18.614;2023-02-28T01:08:49;-1.10;99.90
73586;DHT22;61865;50.232;18.614;2023-02-28T01:11:15;-1.10;99.90
73586;DHT22;61865;50.232;18.614;2023-02-28T01:13:38;-1.10;99.90
73586;DHT22;61865;50.232;18.614;2023-02-28T01:16:03;-1.10;99.90
73586;DHT22;61865;50.232;18.614;2023-02-28T01:18:25;-1.10;99.90
73586;DHT22;61865;50.232;18.614;2023-02-28T01:20:47;-1.10;99.90
73586;DHT22;61865;50.232;18.614;2023-02-28T01:23:09;-1.10;99.90
73586;DHT22;61865;50.232;18.614;2023-02-28T01:25:34;-1.00;99.90
73586;DHT22;61865;50.232;18.614;2023-02-28T01:27:57;-1.00;99.90
73586;DHT22;61865;50.232;18.614;2023-02-28T01:30:19;-1.00;99.90
73586;DHT22;61865;50.232;18.614;2023-02-28T01:32:41;-1.10;99.90
73586;DHT22;61865;50.232;18.614;2023-02-28T01:35:04;-1.10;99.90
73586;DHT22;61865;50.232;18.614;2023-02-28T01:37:26;-1.10;99.90
73586;DHT22;61865;50.232;18.614;2023-02-28T01:39:48;-1.20;99.90
73586;DHT22;61865;50.232;18.614;2023-02-28T01:42:10;-1.20;99.90
73586;DHT22;61865;50.232;18.614;2023-02-28T01:45:14;-1.20;99.90
73586;DHT22;61865;50.232;18.614;2023-02-28T01:47:41;-1.10;99.90
73586;DHT22;61865;50.232;18.614;2023-02-28T01:50:07;-1.10;99.90
73586;DHT22;61865;50.232;18.614;2023-02-28T01:52:32;-1.00;99.90
73586;DHT22;61865;50.232;18.614;2023-02-28T01:54:57;-1.00;99.90
73586;DHT22;61865;50.232;18.614;2023-02-28T01:57:24;-1.00;99.90
73586;DHT22;61865;50.232;18.614;2023-02-28T01:59:50;-1.00;99.90
73586;DHT22;61865;50.232;18.614;2023-02-28T02:02:18;-1.00;99.90
73586;DHT22;61865;50.232;18.614;2023-02-28T02:04:46;-0.90;99.90
73586;DHT22;61865;50.232;18.614;2023-02-28T02:07:13;-0.90;99.90
73586;DHT22;61865;50.232;18.614;2023-02-28T02:09:36;-0.80;99.90
73586;DHT22;61865;50.232;18.614;2023-02-28T02:11:59;-0.80;99.90
73586;DHT22;61865;50.232;18.614;2023-02-28T02:14:43;-0.80;99.90
73586;DHT22;61865;50.232;18.614;2023-02-28T02:17:20;-0.80;99.90
73586;DHT22;61865;50.232;18.614;2023-02-28T02:25:54;-0.70;99.90
73586;DHT22;61865;50.232;18.614;2023-02-28T02:31:48;-0.80;99.90
73586;DHT22;61865;50.232;18.614;2023-02-28T02:34:38;-0.80;99.90
73586;DHT22;61865;50.232;18.614;2023-02-28T02:37:08;-0.90;99.90
73586;DHT22;61865;50.232;18.614;2023-02-28T02:39:38;-0.90;99.90
73586;DHT22;61865;50.232;18.614;2023-02-28T02:42:08;-1.00;99.90
73586;DHT22;61865;50.232;18.614;2023-02-28T02:44:38;-1.10;99.90
73586;DHT22;61865;50.232;18.614;2023-02-28T02:47:06;-1.10;99.90
73586;DHT22;61865;50.232;18.614;2023-02-28T02:49:32;-1.20;99.90
73586;DHT22;61865;50.232;18.614;2023-02-28T02:51:58;-1.30;99.90
73586;DHT22;61865;50.232;18.614;2023-02-28T02:54:25;-1.40;99.90
73586;DHT22;61865;50.232;18.614;2023-02-28T02:56:49;-1.40;99.90
73586;DHT22;61865;50.232;18.614;2023-02-28T02:59:16;-1.40;99.90
73586;DHT22;61865;50.232;18.614;2023-02-28T03:01:41;-1.50;99.90
73586;DHT22;61865;50.232;18.614;2023-02-28T03:04:08;-1.60;99.90
73586;DHT22;61865;50.232;18.614;2023-02-28T03:06:30;-1.70;99.90
73586;DHT22;61865;50.232;18.614;2023-02-28T03:08:54;-1.70;99.90
73586;DHT22;61865;50.232;18.614;2023-02-28T03:11:16;-1.70;99.90
73586;DHT22;61865;50.232;18.614;2023-02-28T03:14:02;-1.80;99.90
73586;DHT22;61865;50.232;18.614;2023-02-28T03:16:34;-1.80;99.90
73586;DHT22;61865;50.232;18.614;2023-02-28T03:19:06;-1.90;99.90
73586;DHT22;61865;50.232;18.614;2023-02-28T03:21:35;-1.90;99.90
73586;DHT22;61865;50.232;18.614;2023-02-28T03:24:04;-1.90;99.90
73586;DHT22;61865;50.232;18.614;2023-02-28T03:26:27;-2.00;99.90
73586;DHT22;61865;50.232;18.614;2023-02-28T03:28:54;-2.00;99.90
73586;DHT22;61865;50.232;18.614;2023-02-28T03:31:20;-2.10;99.90
73586;DHT22;61865;50.232;18.614;2023-02-28T03:33:49;-2.10;99.90
73586;DHT22;61865;50.232;18.614;2023-02-28T03:36:17;-2.20;99.90
73586;DHT22;61865;50.232;18.614;2023-02-28T03:38:45;-2.20;99.90
73586;DHT22;61865;50.232;18.614;2023-02-28T03:41:14;-2.30;99.90
73586;DHT22;61865;50.232;18.614;2023-02-28T03:43:40;-2.30;99.90
73586;DHT22;61865;50.232;18.614;2023-02-28T03:46:07;-2.40;99.90
73586;DHT22;61865;50.232;18.614;2023-02-28T03:48:34;-2.50;99.90
73586;DHT22;61865;50.232;18.614;2023-02-28T03:50:59;-2.50;99.90
73586;DHT22;61865;50.232;18.614;2023-02-28T03:53:25;-2.50;99.90
73586;DHT22;61865;50.232;18.614;2023-02-28T03:55:51;-2.50;99.90
73586;DHT22;61865;50.232;18.614;2023-02-28T03:58:24;-2.50;99.90
73586;DHT22;61865;50.232;18.614;2023-02-28T04:00:52;-2.60;99.90
73586;DHT22;61865;50.232;18.614;2023-02-28T04:03:16;-2.60;99.90
73586;DHT22;61865;50.232;18.614;2023-02-28T04:05:48;-2.60;99.90
73586;DHT22;61865;50.232;18.614;2023-02-28T04:08:11;-2.60;99.90
73586;DHT22;61865;50.232;18.614;2023-02-28T04:10:33;-2.60;99.90
73586;DHT22;61865;50.232;18.614;2023-02-28T04:12:55;-2.60;99.90
73586;DHT22;61865;50.232;18.614;2023-02-28T04:15:19;-2.60;99.90
73586;DHT22;61865;50.232;18.614;2023-02-28T04:17:43;-2.60;99.90
73586;DHT22;61865;50.232;18.614;2023-02-28T04:20:06;-2.60;99.90
73586;DHT22;61865;50.232;18.614;2023-02-28T04:22:30;-2.60;99.90
73586;DHT22;61865;50.232;18.614;2023-02-28T04:24:52;-2.60;99.90
73586;DHT22;61865;50.232;18.614;2023-02-28T04:27:14;-2.70;99.90
73586;DHT22;61865;50.232;18.614;2023-02-28T04:29:36;-2.60;99.90
73586;DHT22;61865;50.232;18.614;2023-02-28T04:32:01;-2.70;99.90
73586;DHT22;61865;50.232;18.614;2023-02-28T04:34:23;-2.70;99.90
73586;DHT22;61865;50.232;18.614;2023-02-28T04:36:45;-2.70;99.90
73586;DHT22;61865;50.232;18.614;2023-02-28T04:39:09;-2.70;99.90
73586;DHT22;61865;50.232;18.614;2023-02-28T04:41:31;-2.70;99.90
73586;DHT22;61865;50.232;18.614;2023-02-28T04:43:53;-2.70;99.90
73586;DHT22;61865;50.232;18.614;2023-02-28T04:46:16;-2.80;99.90
73586;DHT22;61865;50.232;18.614;2023-02-28T04:48:40;-2.80;99.90
73586;DHT22;61865;50.232;18.614;2023-02-28T04:51:06;-2.80;99.90
73586;DHT22;61865;50.232;18.614;2023-02-28T04:53:29;-2.80;99.90
73586;DHT22;61865;50.232;18.614;2023-02-28T04:55:51;-2.80;99.90
73586;DHT22;61865;50.232;18.614;2023-02-28T04:58:13;-2.80;99.90
73586;DHT22;61865;50.232;18.614;2023-02-28T05:00:35;-2.90;99.90
73586;DHT22;61865;50.232;18.614;2023-02-28T05:02:57;-2.90;99.90
73586;DHT22;61865;50.232;18.614;2023-02-28T05:05:20;-2.90;99.90
73586;DHT22;61865;50.232;18.614;2023-02-28T05:07:43;-2.90;99.90
73586;DHT22;61865;50.232;18.614;2023-02-28T05:10:05;-3.00;99.90
73586;DHT22;61865;50.232;18.614;2023-02-28T05:12:27;-3.00;99.90
73586;DHT22;61865;50.232;18.614;2023-02-28T05:14:49;-3.00;99.90
73586;DHT22;61865;50.232;18.614;2023-02-28T05:17:11;-3.00;99.90
73586;DHT22;61865;50.232;18.614;2023-02-28T05:19:33;-3.00;99.90
73586;DHT22;61865;50.232;18.614;2023-02-28T05:21:56;-3.00;99.90
73586;DHT22;61865;50.232;18.614;2023-02-28T05:24:22;-3.00;99.90
73586;DHT22;61865;50.232;18.614;2023-02-28T05:26:45;-3.00;99.90
73586;DHT22;61865;50.232;18.614;2023-02-28T05:29:10;-3.00;99.90
73586;DHT22;61865;50.232;18.614;2023-02-28T05:31:32;-3.00;99.90
73586;DHT22;61865;50.232;18.614;2023-02-28T05:33:54;-3.00;99.90
73586;DHT22;61865;50.232;18.614;2023-02-28T05:36:16;-3.00;99.90
73586;DHT22;61865;50.232;18.614;2023-02-28T05:38:40;-3.00;99.90
73586;DHT22;61865;50.232;18.614;2023-02-28T05:41:05;-3.00;99.90
73586;DHT22;61865;50.232;18.614;2023-02-28T05:43:27;-3.00;99.90
73586;DHT22;61865;50.232;18.614;2023-02-28T05:45:49;-3.00;99.90
73586;DHT22;61865;50.232;18.614;2023-02-28T05:48:11;-3.00;99.90
73586;DHT22;61865;50.232;18.614;2023-02-28T05:50:33;-2.90;99.90
73586;DHT22;61865;50.232;18.614;2023-02-28T05:52:55;-2.90;99.90
73586;DHT22;61865;50.232;18.614;2023-02-28T05:55:19;-2.90;99.90
73586;DHT22;61865;50.232;18.614;2023-02-28T05:57:41;-2.90;99.90
73586;DHT22;61865;50.232;18.614;2023-02-28T06:00:04;-2.90;99.90
73586;DHT22;61865;50.232;18.614;2023-02-28T06:02:26;-2.80;99.90
73586;DHT22;61865;50.232;18.614;2023-02-28T06:04:48;-2.80;99.90
73586;DHT22;61865;50.232;18.614;2023-02-28T06:07:11;-2.80;99.90
73586;DHT22;61865;50.232;18.614;2023-02-28T06:09:32;-2.80;99.90
73586;DHT22;61865;50.232;18.614;2023-02-28T06:11:57;-2.70;99.90
73586;DHT22;61865;50.232;18.614;2023-02-28T06:14:20;-2.70;99.90
73586;DHT22;61865;50.232;18.614;2023-02-28T06:16:42;-2.60;99.90
73586;DHT22;61865;50.232;18.614;2023-02-28T06:19:04;-2.60;99.90
73586;DHT22;61865;50.232;18.614;2023-02-28T06:21:26;-2.60;99.90
73586;DHT22;61865;50.232;18.614;2023-02-28T06:23:49;-2.60;99.90
73586;DHT22;61865;50.232;18.614;2023-02-28T06:26:11;-2.50;99.90
73586;DHT22;61865;50.232;18.614;2023-02-28T06:28:34;-2.50;99.90
73586;DHT22;61865;50.232;18.614;2023-02-28T06:30:56;-2.40;99.90
73586;DHT22;61865;50.232;18.614;2023-02-28T06:33:18;-2.30;99.90
73586;DHT22;61865;50.232;18.614;2023-02-28T06:35:43;-2.30;99.90
73586;DHT22;61865;50.232;18.614;2023-02-28T06:38:05;-2.30;99.90
73586;DHT22;61865;50.232;18.614;2023-02-28T06:40:27;-2.20;99.90
73586;DHT22;61865;50.232;18.614;2023-02-28T06:42:52;-2.10;99.90
73586;DHT22;61865;50.232;18.614;2023-02-28T06:45:15;-2.00;99.90
73586;DHT22;61865;50.232;18.614;2023-02-28T06:47:39;-2.00;99.90
73586;DHT22;61865;50.232;18.614;2023-02-28T06:50:01;-1.90;99.90
73586;DHT22;61865;50.232;18.614;2023-02-28T06:52:25;-1.90;99.90
73586;DHT22;61865;50.232;18.614;2023-02-28T06:54:47;-1.80;99.90
73586;DHT22;61865;50.232;18.614;2023-02-28T06:57:20;-1.70;99.90
73586;DHT22;61865;50.232;18.614;2023-02-28T06:59:42;-1.70;99.90
73586;DHT22;61865;50.232;18.614;2023-02-28T07:02:08;-1.60;99.90
73586;DHT22;61865;50.232;18.614;2023-02-28T07:04:30;-1.60;99.90
73586;DHT22;61865;50.232;18.614;2023-02-28T07:06:52;-1.50;99.90
73586;DHT22;61865;50.232;18.614;2023-02-28T07:09:16;-1.50;99.90
73586;DHT22;61865;50.232;18.614;2023-02-28T07:11:42;-1.40;99.90
73586;DHT22;61865;50.232;18.614;2023-02-28T07:14:04;-1.30;99.90
73586;DHT22;61865;50.232;18.614;2023-02-28T07:16:26;-1.30;99.90
73586;DHT22;61865;50.232;18.614;2023-02-28T07:18:51;-1.20;99.90
73586;DHT22;61865;50.232;18.614;2023-02-28T07:21:14;-1.20;99.90
73586;DHT22;61865;50.232;18.614;2023-02-28T07:23:37;-1.10;99.90
73586;DHT22;61865;50.232;18.614;2023-02-28T07:25:59;-1.00;99.90
73586;DHT22;61865;50.232;18.614;2023-02-28T07:28:21;-1.00;99.90
73586;DHT22;61865;50.232;18.614;2023-02-28T07:30:43;-0.90;99.90
73586;DHT22;61865;50.232;18.614;2023-02-28T07:33:05;-0.90;99.90
73586;DHT22;61865;50.232;18.614;2023-02-28T07:35:29;-0.80;99.90
73586;DHT22;61865;50.232;18.614;2023-02-28T07:37:51;-0.70;99.90
73586;DHT22;61865;50.232;18.614;2023-02-28T07:40:14;-0.60;99.90
73586;DHT22;61865;50.232;18.614;2023-02-28T07:42:36;-0.60;99.90
73586;DHT22;61865;50.232;18.614;2023-02-28T07:44:58;-0.60;99.90
73586;DHT22;61865;50.232;18.614;2023-02-28T07:47:20;-0.60;99.90
73586;DHT22;61865;50.232;18.614;2023-02-28T07:49:42;-0.60;99.90
73586;DHT22;61865;50.232;18.614;2023-02-28T07:52:06;-0.60;99.90
73586;DHT22;61865;50.232;18.614;2023-02-28T07:54:29;-0.60;99.90
73586;DHT22;61865;50.232;18.614;2023-02-28T07:56:51;-0.50;99.90
73586;DHT22;61865;50.232;18.614;2023-02-28T07:59:13;-0.40;99.90
73586;DHT22;61865;50.232;18.614;2023-02-28T08:01:34;-0.30;99.90
73586;DHT22;61865;50.232;18.614;2023-02-28T08:03:56;-0.20;99.90
73586;DHT22;61865;50.232;18.614;2023-02-28T08:06:21;-0.20;99.90
73586;DHT22;61865;50.232;18.614;2023-02-28T08:08:45;-0.20;99.90
73586;DHT22;61865;50.232;18.614;2023-02-28T08:11:07;-0.10;99.90
73586;DHT22;61865;50.232;18.614;2023-02-28T08:13:29;-0.10;99.90
73586;DHT22;61865;50.232;18.614;2023-02-28T08:15:55;0.00;99.90
73586;DHT22;61865;50.232;18.614;2023-02-28T08:18:17;0.00;99.90
73586;DHT22;61865;50.232;18.614;2023-02-28T08:20:39;0.10;99.90
73586;DHT22;61865;50.232;18.614;2023-02-28T08:23:01;0.10;99.90
73586;DHT22;61865;50.232;18.614;2023-02-28T08:25:27;0.20;99.90
73586;DHT22;61865;50.232;18.614;2023-02-28T08:27:50;0.20;99.90
73586;DHT22;61865;50.232;18.614;2023-02-28T08:30:13;0.20;99.90
73586;DHT22;61865;50.232;18.614;2023-02-28T08:32:35;0.20;99.90
73586;DHT22;61865;50.232;18.614;2023-02-28T08:34:57;0.30;99.90
73586;DHT22;61865;50.232;18.614;2023-02-28T08:37:19;0.40;99.90
73586;DHT22;61865;50.232;18.614;2023-02-28T08:39:42;0.40;99.90
73586;DHT22;61865;50.232;18.614;2023-02-28T08:42:05;0.40;99.90
73586;DHT22;61865;50.232;18.614;2023-02-28T08:44:27;0.50;99.90
73586;DHT22;61865;50.232;18.614;2023-02-28T08:46:49;0.50;99.90
73586;DHT22;61865;50.232;18.614;2023-02-28T08:49:11;0.60;99.90
73586;DHT22;61865;50.232;18.614;2023-02-28T08:51:33;0.60;99.90
73586;DHT22;61865;50.232;18.614;2023-02-28T08:53:58;0.70;99.90
73586;DHT22;61865;50.232;18.614;2023-02-28T08:56:20;0.70;99.90
73586;DHT22;61865;50.232;18.614;2023-02-28T08:58:45;0.90;99.90
73586;DHT22;61865;50.232;18.614;2023-02-28T09:01:11;1.00;99.90
73586;DHT22;61865;50.232;18.614;2023-02-28T09:03:33;1.10;99.90
73586;DHT22;61865;50.232;18.614;2023-02-28T09:05:57;1.20;99.90
73586;DHT22;61865;50.232;18.614;2023-02-28T09:08:19;1.20;99.90
73586;DHT22;61865;50.232;18.614;2023-02-28T09:10:41;1.30;99.90
73586;DHT22;61865;50.232;18.614;2023-02-28T09:13:03;1.50;99.90
73586;DHT22;61865;50.232;18.614;2023-02-28T09:15:26;1.60;99.90
73586;DHT22;61865;50.232;18.614;2023-02-28T09:17:48;1.60;99.90
73586;DHT22;61865;50.232;18.614;2023-02-28T09:20:11;1.70;99.90
73586;DHT22;61865;50.232;18.614;2023-02-28T09:22:33;1.70;99.90
73586;DHT22;61865;50.232;18.614;2023-02-28T09:24:55;1.80;99.90
73586;DHT22;61865;50.232;18.614;2023-02-28T09:27:17;1.80;99.90
73586;DHT22;61865;50.232;18.614;2023-02-28T09:29:39;1.80;99.90
73586;DHT22;61865;50.232;18.614;2023-02-28T09:32:03;1.90;99.90
73586;DHT22;61865;50.232;18.614;2023-02-28T09:34:26;1.90;99.90
73586;DHT22;61865;50.232;18.614;2023-02-28T09:36:48;1.90;96.90
73586;DHT22;61865;50.232;18.614;2023-02-28T09:39:13;2.00;99.80
73586;DHT22;61865;50.232;18.614;2023-02-28T09:41:39;1.90;96.50
73586;DHT22;61865;50.232;18.614;2023-02-28T09:44:12;1.80;99.90
73586;DHT22;61865;50.232;18.614;2023-02-28T09:46:39;1.80;99.90
73586;DHT22;61865;50.232;18.614;2023-02-28T09:49:06;1.80;95.60
73586;DHT22;61865;50.232;18.614;2023-02-28T09:51:45;1.60;99.80
73586;DHT22;61865;50.232;18.614;2023-02-28T09:54:13;1.60;99.90
73586;DHT22;61865;50.232;18.614;2023-02-28T09:56:41;1.70;97.10
73586;DHT22;61865;50.232;18.614;2023-02-28T09:59:06;1.40;94.00
73586;DHT22;61865;50.232;18.614;2023-02-28T10:01:37;1.50;95.60
73586;DHT22;61865;50.232;18.614;2023-02-28T10:04:05;1.60;99.90
73586;DHT22;61865;50.232;18.614;2023-02-28T10:06:36;1.70;99.90
73586;DHT22;61865;50.232;18.614;2023-02-28T10:09:03;1.80;99.90
73586;DHT22;61865;50.232;18.614;2023-02-28T10:11:27;1.80;98.80
73586;DHT22;61865;50.232;18.614;2023-02-28T10:13:54;2.00;98.70
73586;DHT22;61865;50.232;18.614;2023-02-28T10:16:25;2.00;99.90
73586;DHT22;61865;50.232;18.614;2023-02-28T10:18:54;2.00;96.40
73586;DHT22;61865;50.232;18.614;2023-02-28T10:21:21;2.00;99.90
73586;DHT22;61865;50.232;18.614;2023-02-28T10:23:45;2.10;98.90
73586;DHT22;61865;50.232;18.614;2023-02-28T10:26:12;2.20;96.10
73586;DHT22;61865;50.232;18.614;2023-02-28T10:28:36;2.30;93.70
73586;DHT22;61865;50.232;18.614;2023-02-28T10:30:58;2.30;86.10
73586;DHT22;61865;50.232;18.614;2023-02-28T10:33:23;2.30;96.40
73586;DHT22;61865;50.232;18.614;2023-02-28T10:35:45;2.40;94.30
73586;DHT22;61865;50.232;18.614;2023-02-28T10:38:16;2.50;96.10
73586;DHT22;61865;50.232;18.614;2023-02-28T10:40:38;2.70;90.50
73586;DHT22;61865;50.232;18.614;2023-02-28T10:43:01;2.70;93.70
73586;DHT22;61865;50.232;18.614;2023-02-28T10:45:24;2.90;92.80
73586;DHT22;61865;50.232;18.614;2023-02-28T10:47:52;2.90;91.10
73586;DHT22;61865;50.232;18.614;2023-02-28T10:50:35;3.00;87.50
73586;DHT22;61865;50.232;18.614;2023-02-28T10:53:14;3.00;90.70
73586;DHT22;61865;50.232;18.614;2023-02-28T10:55:37;3.20;94.40
73586;DHT22;61865;50.232;18.614;2023-02-28T10:57:59;3.30;87.90
73586;DHT22;61865;50.232;18.614;2023-02-28T11:00:24;3.20;81.30
73586;DHT22;61865;50.232;18.614;2023-02-28T11:02:46;3.00;91.20
73586;DHT22;61865;50.232;18.614;2023-02-28T11:05:27;2.80;83.40
73586;DHT22;61865;50.232;18.614;2023-02-28T11:07:51;2.80;93.50
73586;DHT22;61865;50.232;18.614;2023-02-28T11:10:20;2.80;93.10
73586;DHT22;61865;50.232;18.614;2023-02-28T11:12:44;2.80;92.70
73586;DHT22;61865;50.232;18.614;2023-02-28T11:15:21;2.60;95.60
73586;DHT22;61865;50.232;18.614;2023-02-28T11:17:53;2.70;84.00
73586;DHT22;61865;50.232;18.614;2023-02-28T11:20:20;2.50;91.80
73586;DHT22;61865;50.232;18.614;2023-02-28T11:22:45;2.40;94.20
73586;DHT22;61865;50.232;18.614;2023-02-28T11:25:12;2.50;95.60
73586;DHT22;61865;50.232;18.614;2023-02-28T11:27:45;2.50;98.50
73586;DHT22;61865;50.232;18.614;2023-02-28T11:30:33;2.50;99.10
73586;DHT22;61865;50.232;18.614;2023-02-28T11:32:58;2.50;93.10
73586;DHT22;61865;50.232;18.614;2023-02-28T11:35:26;2.40;93.20
73586;DHT22;61865;50.232;18.614;2023-02-28T11:37:49;2.30;91.50
73586;DHT22;61865;50.232;18.614;2023-02-28T11:40:14;2.20;99.90
73586;DHT22;61865;50.232;18.614;2023-02-28T11:42:49;2.20;99.40
73586;DHT22;61865;50.232;18.614;2023-02-28T11:48:07;2.00;98.40
73586;DHT22;61865;50.232;18.614;2023-02-28T11:50:42;2.00;93.70
73586;DHT22;61865;50.232;18.614;2023-02-28T11:53:17;1.90;99.90
73586;DHT22;61865;50.232;18.614;2023-02-28T11:55:44;2.00;99.90
73586;DHT22;61865;50.232;18.614;2023-02-28T11:58:20;2.10;99.90
73586;DHT22;61865;50.232;18.614;2023-02-28T12:01:00;2.10;96.40
73586;DHT22;61865;50.232;18.614;2023-02-28T12:03:30;2.00;96.40
73586;DHT22;61865;50.232;18.614;2023-02-28T12:06:00;2.00;93.70
73586;DHT22;61865;50.232;18.614;2023-02-28T12:08:33;2.00;99.90
73586;DHT22;61865;50.232;18.614;2023-02-28T12:11:06;2.00;99.20
73586;DHT22;61865;50.232;18.614;2023-02-28T12:13:39;2.00;97.10
73586;DHT22;61865;50.232;18.614;2023-02-28T12:19:19;2.00;99.90
73586;DHT22;61865;50.232;18.614;2023-02-28T12:21:56;2.00;99.90
73586;DHT22;61865;50.232;18.614;2023-02-28T12:24:40;2.10;96.70
73586;DHT22;61865;50.232;18.614;2023-02-28T12:27:07;2.00;95.10
73586;DHT22;61865;50.232;18.614;2023-02-28T12:29:43;2.10;99.90
73586;DHT22;61865;50.232;18.614;2023-02-28T12:32:12;2.10;99.90
73586;DHT22;61865;50.232;18.614;2023-02-28T12:34:38;2.20;87.70
73586;DHT22;61865;50.232;18.614;2023-02-28T12:37:09;2.00;83.20
73586;DHT22;61865;50.232;18.614;2023-02-28T12:39:37;1.90;99.00
73586;DHT22;61865;50.232;18.614;2023-02-28T12:42:07;2.10;94.30
73586;DHT22;61865;50.232;18.614;2023-02-28T12:44:42;2.10;99.90
73586;DHT22;61865;50.232;18.614;2023-02-28T12:47:13;2.20;99.90
73586;DHT22;61865;50.232;18.614;2023-02-28T12:49:42;2.20;97.20
73586;DHT22;61865;50.232;18.614;2023-02-28T12:52:08;2.30;94.30
73586;DHT22;61865;50.232;18.614;2023-02-28T12:54:39;2.20;98.10
73586;DHT22;61865;50.232;18.614;2023-02-28T12:57:11;2.20;94.50
73586;DHT22;61865;50.232;18.614;2023-02-28T12:59:40;2.30;99.70
73586;DHT22;61865;50.232;18.614;2023-02-28T13:02:33;2.40;92.60
73586;DHT22;61865;50.232;18.614;2023-02-28T13:05:44;2.40;82.90
73586;DHT22;61865;50.232;18.614;2023-02-28T13:11:04;2.30;93.00
73586;DHT22;61865;50.232;18.614;2023-02-28T13:13:28;2.30;93.80
73586;DHT22;61865;50.232;18.614;2023-02-28T13:16:01;2.30;96.00
73586;DHT22;61865;50.232;18.614;2023-02-28T13:18:34;2.30;99.90
73586;DHT22;61865;50.232;18.614;2023-02-28T13:21:04;2.30;93.30
73586;DHT22;61865;50.232;18.614;2023-02-28T13:23:58;2.40;93.10
73586;DHT22;61865;50.232;18.614;2023-02-28T13:26:21;2.40;94.70
73586;DHT22;61865;50.232;18.614;2023-02-28T13:29:27;2.40;99.00
73586;DHT22;61865;50.232;18.614;2023-02-28T13:32:26;2.40;96.10
73586;DHT22;61865;50.232;18.614;2023-02-28T13:38:17;2.50;94.70
73586;DHT22;61865;50.232;18.614;2023-02-28T13:40:43;2.50;93.90
73586;DHT22;61865;50.232;18.614;2023-02-28T13:43:08;2.40;92.60
73586;DHT22;61865;50.232;18.614;2023-02-28T13:45:32;2.40;94.80
73586;DHT22;61865;50.232;18.614;2023-02-28T13:48:02;2.40;78.70
73586;DHT22;61865;50.232;18.614;2023-02-28T13:50:32;2.40;94.70
73586;DHT22;61865;50.232;18.614;2023-02-28T13:53:14;2.40;93.00
73586;DHT22;61865;50.232;18.614;2023-02-28T13:55:46;2.40;91.10
73586;DHT22;61865;50.232;18.614;2023-02-28T14:01:13;2.50;87.40
73586;DHT22;61865;50.232;18.614;2023-02-28T14:03:52;2.60;90.20
73586;DHT22;61865;50.232;18.614;2023-02-28T14:06:23;2.60;91.00
73586;DHT22;61865;50.232;18.614;2023-02-28T14:08:54;2.50;88.30
73586;DHT22;61865;50.232;18.614;2023-02-28T14:11:26;2.50;95.00
73586;DHT22;61865;50.232;18.614;2023-02-28T14:13:48;2.50;93.80
73586;DHT22;61865;50.232;18.614;2023-02-28T14:16:11;2.50;99.90
73586;DHT22;61865;50.232;18.614;2023-02-28T14:18:37;2.50;91.40
73586;DHT22;61865;50.232;18.614;2023-02-28T14:21:11;2.50;93.10
73586;DHT22;61865;50.232;18.614;2023-02-28T14:26:35;2.40;88.30
73586;DHT22;61865;50.232;18.614;2023-02-28T14:29:14;2.40;92.70
73586;DHT22;61865;50.232;18.614;2023-02-28T14:31:45;2.40;94.30
73586;DHT22;61865;50.232;18.614;2023-02-28T14:34:26;2.40;97.60
73586;DHT22;61865;50.232;18.614;2023-02-28T14:36:53;2.50;99.00
73586;DHT22;61865;50.232;18.614;2023-02-28T14:39:19;2.40;87.30
73586;DHT22;61865;50.232;18.614;2023-02-28T14:41:46;2.50;97.60
73586;DHT22;61865;50.232;18.614;2023-02-28T14:44:16;2.50;95.10
73586;DHT22;61865;50.232;18.614;2023-02-28T14:46:40;2.50;94.70
73586;DHT22;61865;50.232;18.614;2023-02-28T14:49:04;2.50;91.70
73586;DHT22;61865;50.232;18.614;2023-02-28T14:51:29;2.60;94.50
73586;DHT22;61865;50.232;18.614;2023-02-28T14:53:59;2.50;99.90
73586;DHT22;61865;50.232;18.614;2023-02-28T14:56:27;2.50;91.00
73586;DHT22;61865;50.232;18.614;2023-02-28T14:58:56;2.50;84.50
73586;DHT22;61865;50.232;18.614;2023-02-28T15:01:20;2.50;90.30
73586;DHT22;61865;50.232;18.614;2023-02-28T15:03:44;2.50;96.50
73586;DHT22;61865;50.232;18.614;2023-02-28T15:06:13;2.50;85.40
73586;DHT22;61865;50.232;18.614;2023-02-28T15:08:36;2.40;96.50
73586;DHT22;61865;50.232;18.614;2023-02-28T15:11:02;2.40;94.60
73586;DHT22;61865;50.232;18.614;2023-02-28T15:13:39;2.40;98.40
73586;DHT22;61865;50.232;18.614;2023-02-28T15:16:08;2.40;99.90
73586;DHT22;61865;50.232;18.614;2023-02-28T15:18:40;2.40;99.90
73586;DHT22;61865;50.232;18.614;2023-02-28T15:21:09;2.40;99.90
73586;DHT22;61865;50.232;18.614;2023-02-28T15:23:36;2.40;98.60
73586;DHT22;61865;50.232;18.614;2023-02-28T15:26:04;2.30;99.90
73586;DHT22;61865;50.232;18.614;2023-02-28T15:28:30;2.40;99.10
73586;DHT22;61865;50.232;18.614;2023-02-28T15:30:56;2.30;99.90
73586;DHT22;61865;50.232;18.614;2023-02-28T15:33:23;2.30;99.90
73586;DHT22;61865;50.232;18.614;2023-02-28T15:35:47;2.30;99.90
73586;DHT22;61865;50.232;18.614;2023-02-28T15:38:16;2.20;99.90
73586;DHT22;61865;50.232;18.614;2023-02-28T15:40:44;2.20;99.90
73586;DHT22;61865;50.232;18.614;2023-02-28T15:43:18;2.10;99.90
73586;DHT22;61865;50.232;18.614;2023-02-28T15:45:48;2.10;99.90